34°C Temp
11°C Dewpoint
24% Humidity
Temperature
13 KM/H
8 MPH
7 KTS
260°
Due West

Wind Speed
Clear
Conditions
Pressure 1015.92 (hPa) - 30 (in)
Visibility 6.2 (mi) - 10.0 (km)

Current Conditions
LIRQ
Location 70(km)
Metar :LIRQ 191350Z 26007KT 180V300 CAVOK 34/11 Q1016
Mon 19th August 14:50 pm

Airport
  Metar Aviation API Data Provided by https://www.checkwx.com/ PHP scripts by weather34.com ©2019